sensor_id;sensor_type;location;lat;lon;timestamp;temperature;humidity
20829;DHT22;10575;50.124;8.582;2023-08-06T00:01:31;18.30;99.90
20829;DHT22;10575;50.124;8.582;2023-08-06T00:03:59;18.20;99.90
20829;DHT22;10575;50.124;8.582;2023-08-06T00:06:25;18.20;99.90
20829;DHT22;10575;50.124;8.582;2023-08-06T00:08:50;18.30;99.90
20829;DHT22;10575;50.124;8.582;2023-08-06T00:11:28;18.30;99.90
20829;DHT22;10575;50.124;8.582;2023-08-06T00:13:54;18.30;99.90
20829;DHT22;10575;50.124;8.582;2023-08-06T00:16:19;18.40;99.90
20829;DHT22;10575;50.124;8.582;2023-08-06T00:18:45;18.40;99.90
20829;DHT22;10575;50.124;8.582;2023-08-06T00:21:10;18.40;99.90
20829;DHT22;10575;50.124;8.582;2023-08-06T00:23:37;18.40;99.90
20829;DHT22;10575;50.124;8.582;2023-08-06T00:26:03;18.50;99.90
20829;DHT22;10575;50.124;8.582;2023-08-06T00:28:40;18.60;99.90
20829;DHT22;10575;50.124;8.582;2023-08-06T00:31:15;18.60;99.90
20829;DHT22;10575;50.124;8.582;2023-08-06T00:33:40;18.60;99.90
20829;DHT22;10575;50.124;8.582;2023-08-06T00:36:06;18.60;99.90
20829;DHT22;10575;50.124;8.582;2023-08-06T00:38:31;18.60;99.90
20829;DHT22;10575;50.124;8.582;2023-08-06T00:40:57;18.60;99.90
20829;DHT22;10575;50.124;8.582;2023-08-06T00:43:22;18.70;99.90
20829;DHT22;10575;50.124;8.582;2023-08-06T00:45:48;18.60;99.90
20829;DHT22;10575;50.124;8.582;2023-08-06T00:48:14;18.60;99.90
20829;DHT22;10575;50.124;8.582;2023-08-06T00:50:39;18.60;99.90
20829;DHT22;10575;50.124;8.582;2023-08-06T00:53:05;18.50;99.90
20829;DHT22;10575;50.124;8.582;2023-08-06T00:55:31;18.40;99.90
20829;DHT22;10575;50.124;8.582;2023-08-06T00:57:56;18.40;99.90
20829;DHT22;10575;50.124;8.582;2023-08-06T01:00:24;18.40;99.90
20829;DHT22;10575;50.124;8.582;2023-08-06T01:02:49;18.40;99.90
20829;DHT22;10575;50.124;8.582;2023-08-06T01:05:15;18.40;99.90
20829;DHT22;10575;50.124;8.582;2023-08-06T01:10:47;18.40;99.90
20829;DHT22;10575;50.124;8.582;2023-08-06T01:16:03;18.30;99.90
20829;DHT22;10575;50.124;8.582;2023-08-06T01:18:30;18.30;99.90
20829;DHT22;10575;50.124;8.582;2023-08-06T01:20:57;18.30;99.90
20829;DHT22;10575;50.124;8.582;2023-08-06T01:23:23;18.30;99.90
20829;DHT22;10575;50.124;8.582;2023-08-06T01:28:56;18.20;99.90
20829;DHT22;10575;50.124;8.582;2023-08-06T01:31:51;18.10;99.90
20829;DHT22;10575;50.124;8.582;2023-08-06T01:34:26;18.10;99.90
20829;DHT22;10575;50.124;8.582;2023-08-06T01:36:53;18.10;99.90
20829;DHT22;10575;50.124;8.582;2023-08-06T01:39:18;18.20;99.90
20829;DHT22;10575;50.124;8.582;2023-08-06T01:41:50;18.30;99.90
20829;DHT22;10575;50.124;8.582;2023-08-06T01:44:16;18.30;99.90
20829;DHT22;10575;50.124;8.582;2023-08-06T01:47:06;18.40;99.90
20829;DHT22;10575;50.124;8.582;2023-08-06T01:49:43;18.40;99.90
20829;DHT22;10575;50.124;8.582;2023-08-06T01:52:13;18.50;99.90
20829;DHT22;10575;50.124;8.582;2023-08-06T01:54:38;18.50;99.90
20829;DHT22;10575;50.124;8.582;2023-08-06T01:57:04;18.60;99.90
20829;DHT22;10575;50.124;8.582;2023-08-06T01:59:30;18.60;99.90
20829;DHT22;10575;50.124;8.582;2023-08-06T02:01:55;18.60;99.90
20829;DHT22;10575;50.124;8.582;2023-08-06T02:04:21;18.50;99.90
20829;DHT22;10575;50.124;8.582;2023-08-06T02:06:46;18.50;99.90
20829;DHT22;10575;50.124;8.582;2023-08-06T02:09:12;18.50;99.90
20829;DHT22;10575;50.124;8.582;2023-08-06T02:11:37;18.60;99.90
20829;DHT22;10575;50.124;8.582;2023-08-06T02:14:03;18.60;99.90
20829;DHT22;10575;50.124;8.582;2023-08-06T02:16:31;18.50;99.90
20829;DHT22;10575;50.124;8.582;2023-08-06T02:18:56;18.50;99.90
20829;DHT22;10575;50.124;8.582;2023-08-06T02:21:22;18.50;99.90
20829;DHT22;10575;50.124;8.582;2023-08-06T02:23:47;18.40;99.90
20829;DHT22;10575;50.124;8.582;2023-08-06T02:26:13;18.40;99.90
20829;DHT22;10575;50.124;8.582;2023-08-06T02:28:38;18.40;99.90
20829;DHT22;10575;50.124;8.582;2023-08-06T02:31:04;18.40;99.90
20829;DHT22;10575;50.124;8.582;2023-08-06T02:33:29;18.30;99.90
20829;DHT22;10575;50.124;8.582;2023-08-06T02:36:02;18.30;99.90
20829;DHT22;10575;50.124;8.582;2023-08-06T02:38:29;18.30;99.90
20829;DHT22;10575;50.124;8.582;2023-08-06T02:40:54;18.30;99.90
20829;DHT22;10575;50.124;8.582;2023-08-06T02:43:20;18.30;99.90
20829;DHT22;10575;50.124;8.582;2023-08-06T02:45:45;18.10;99.90
20829;DHT22;10575;50.124;8.582;2023-08-06T02:48:11;17.90;99.90
20829;DHT22;10575;50.124;8.582;2023-08-06T02:50:52;17.90;99.90
20829;DHT22;10575;50.124;8.582;2023-08-06T02:53:17;17.80;99.90
20829;DHT22;10575;50.124;8.582;2023-08-06T02:55:47;17.90;99.90
20829;DHT22;10575;50.124;8.582;2023-08-06T02:58:15;17.90;99.90
20829;DHT22;10575;50.124;8.582;2023-08-06T03:00:41;18.00;99.90
20829;DHT22;10575;50.124;8.582;2023-08-06T03:03:08;18.10;99.90
20829;DHT22;10575;50.124;8.582;2023-08-06T03:05:34;18.20;99.90
20829;DHT22;10575;50.124;8.582;2023-08-06T03:08:08;18.20;99.90
20829;DHT22;10575;50.124;8.582;2023-08-06T03:10:43;18.30;99.90
20829;DHT22;10575;50.124;8.582;2023-08-06T03:13:08;18.30;99.90
20829;DHT22;10575;50.124;8.582;2023-08-06T03:15:34;18.30;99.90
20829;DHT22;10575;50.124;8.582;2023-08-06T03:18:00;18.30;99.90
20829;DHT22;10575;50.124;8.582;2023-08-06T03:20:25;18.30;99.90
20829;DHT22;10575;50.124;8.582;2023-08-06T03:22:54;18.30;99.90
20829;DHT22;10575;50.124;8.582;2023-08-06T03:25:19;18.40;99.90
20829;DHT22;10575;50.124;8.582;2023-08-06T03:27:45;18.30;99.90
20829;DHT22;10575;50.124;8.582;2023-08-06T03:30:10;18.30;99.90
20829;DHT22;10575;50.124;8.582;2023-08-06T03:32:36;18.40;99.90
20829;DHT22;10575;50.124;8.582;2023-08-06T03:35:01;18.40;99.90
20829;DHT22;10575;50.124;8.582;2023-08-06T03:37:27;18.40;99.90
20829;DHT22;10575;50.124;8.582;2023-08-06T03:39:52;18.40;99.90
20829;DHT22;10575;50.124;8.582;2023-08-06T03:42:18;18.30;99.90
20829;DHT22;10575;50.124;8.582;2023-08-06T03:44:43;18.30;99.90
20829;DHT22;10575;50.124;8.582;2023-08-06T03:47:09;18.20;99.90
20829;DHT22;10575;50.124;8.582;2023-08-06T03:49:35;18.20;99.90
20829;DHT22;10575;50.124;8.582;2023-08-06T03:52:00;18.20;99.90
20829;DHT22;10575;50.124;8.582;2023-08-06T03:54:28;18.20;99.90
20829;DHT22;10575;50.124;8.582;2023-08-06T03:56:55;18.20;99.90
20829;DHT22;10575;50.124;8.582;2023-08-06T03:59:20;18.30;99.90
20829;DHT22;10575;50.124;8.582;2023-08-06T04:01:46;18.20;99.90
20829;DHT22;10575;50.124;8.582;2023-08-06T04:04:11;18.20;99.90
20829;DHT22;10575;50.124;8.582;2023-08-06T04:06:37;18.20;99.90
20829;DHT22;10575;50.124;8.582;2023-08-06T04:09:02;18.10;99.90
20829;DHT22;10575;50.124;8.582;2023-08-06T04:11:33;18.10;99.90
20829;DHT22;10575;50.124;8.582;2023-08-06T04:13:58;18.00;99.90
20829;DHT22;10575;50.124;8.582;2023-08-06T04:16:24;17.90;99.90
20829;DHT22;10575;50.124;8.582;2023-08-06T04:18:51;17.90;99.90
20829;DHT22;10575;50.124;8.582;2023-08-06T04:21:18;17.80;99.90
20829;DHT22;10575;50.124;8.582;2023-08-06T04:23:43;17.70;99.90
20829;DHT22;10575;50.124;8.582;2023-08-06T04:26:18;17.80;99.90
20829;DHT22;10575;50.124;8.582;2023-08-06T04:28:53;17.80;99.90
20829;DHT22;10575;50.124;8.582;2023-08-06T04:31:23;17.90;99.90
20829;DHT22;10575;50.124;8.582;2023-08-06T04:33:49;17.80;99.90
20829;DHT22;10575;50.124;8.582;2023-08-06T04:36:14;17.90;99.90
20829;DHT22;10575;50.124;8.582;2023-08-06T04:38:40;18.00;99.90
20829;DHT22;10575;50.124;8.582;2023-08-06T04:41:10;18.10;99.90
20829;DHT22;10575;50.124;8.582;2023-08-06T04:43:35;18.10;99.90
20829;DHT22;10575;50.124;8.582;2023-08-06T04:46:01;18.20;99.90
20829;DHT22;10575;50.124;8.582;2023-08-06T04:48:26;18.20;99.90
20829;DHT22;10575;50.124;8.582;2023-08-06T04:50:52;18.20;99.90
20829;DHT22;10575;50.124;8.582;2023-08-06T04:53:18;18.20;99.90
20829;DHT22;10575;50.124;8.582;2023-08-06T04:55:43;18.20;99.90
20829;DHT22;10575;50.124;8.582;2023-08-06T04:58:10;18.20;99.90
20829;DHT22;10575;50.124;8.582;2023-08-06T05:00:36;18.00;99.90
20829;DHT22;10575;50.124;8.582;2023-08-06T05:03:01;17.80;99.90
20829;DHT22;10575;50.124;8.582;2023-08-06T05:05:27;17.70;99.90
20829;DHT22;10575;50.124;8.582;2023-08-06T05:07:55;17.70;99.90
20829;DHT22;10575;50.124;8.582;2023-08-06T05:10:21;17.70;99.90
20829;DHT22;10575;50.124;8.582;2023-08-06T05:12:49;17.60;99.90
20829;DHT22;10575;50.124;8.582;2023-08-06T05:15:14;17.60;99.90
20829;DHT22;10575;50.124;8.582;2023-08-06T05:17:40;17.50;99.90
20829;DHT22;10575;50.124;8.582;2023-08-06T05:20:06;17.40;99.90
20829;DHT22;10575;50.124;8.582;2023-08-06T05:22:31;17.40;99.90
20829;DHT22;10575;50.124;8.582;2023-08-06T05:24:57;17.40;99.90
20829;DHT22;10575;50.124;8.582;2023-08-06T05:27:22;17.40;99.90
20829;DHT22;10575;50.124;8.582;2023-08-06T05:32:38;17.40;99.90
20829;DHT22;10575;50.124;8.582;2023-08-06T05:40:14;17.60;99.90
20829;DHT22;10575;50.124;8.582;2023-08-06T05:42:40;17.60;99.90
20829;DHT22;10575;50.124;8.582;2023-08-06T05:45:06;17.50;99.90
20829;DHT22;10575;50.124;8.582;2023-08-06T05:47:32;17.60;99.90
20829;DHT22;10575;50.124;8.582;2023-08-06T05:50:13;17.50;99.90
20829;DHT22;10575;50.124;8.582;2023-08-06T05:52:38;17.40;99.90
20829;DHT22;10575;50.124;8.582;2023-08-06T05:55:04;17.30;99.90
20829;DHT22;10575;50.124;8.582;2023-08-06T05:57:30;17.30;99.90
20829;DHT22;10575;50.124;8.582;2023-08-06T05:59:55;17.30;99.90
20829;DHT22;10575;50.124;8.582;2023-08-06T06:02:21;17.40;99.90
20829;DHT22;10575;50.124;8.582;2023-08-06T06:04:49;17.40;99.90
20829;DHT22;10575;50.124;8.582;2023-08-06T06:07:14;17.50;99.90
20829;DHT22;10575;50.124;8.582;2023-08-06T06:09:40;17.60;99.90
20829;DHT22;10575;50.124;8.582;2023-08-06T06:12:06;17.60;99.90
20829;DHT22;10575;50.124;8.582;2023-08-06T06:14:32;17.60;99.90
20829;DHT22;10575;50.124;8.582;2023-08-06T06:16:58;17.60;99.90
20829;DHT22;10575;50.124;8.582;2023-08-06T06:19:24;17.70;99.90
20829;DHT22;10575;50.124;8.582;2023-08-06T06:21:49;17.70;99.90
20829;DHT22;10575;50.124;8.582;2023-08-06T06:24:15;17.70;99.90
20829;DHT22;10575;50.124;8.582;2023-08-06T06:26:40;17.70;99.90
20829;DHT22;10575;50.124;8.582;2023-08-06T06:29:05;17.80;99.90
20829;DHT22;10575;50.124;8.582;2023-08-06T06:31:31;17.80;99.90
20829;DHT22;10575;50.124;8.582;2023-08-06T06:33:57;17.90;99.90
20829;DHT22;10575;50.124;8.582;2023-08-06T06:36:22;17.90;99.90
20829;DHT22;10575;50.124;8.582;2023-08-06T06:38:49;17.90;99.90
20829;DHT22;10575;50.124;8.582;2023-08-06T06:50:28;17.50;99.90
20829;DHT22;10575;50.124;8.582;2023-08-06T06:52:54;17.40;99.90
20829;DHT22;10575;50.124;8.582;2023-08-06T06:55:19;17.40;99.90
20829;DHT22;10575;50.124;8.582;2023-08-06T06:57:46;17.40;99.90
20829;DHT22;10575;50.124;8.582;2023-08-06T07:00:12;17.40;99.90
20829;DHT22;10575;50.124;8.582;2023-08-06T07:02:37;17.40;99.90
20829;DHT22;10575;50.124;8.582;2023-08-06T07:05:03;17.40;99.90
20829;DHT22;10575;50.124;8.582;2023-08-06T07:07:28;17.50;99.90
20829;DHT22;10575;50.124;8.582;2023-08-06T07:09:54;17.40;99.90
20829;DHT22;10575;50.124;8.582;2023-08-06T07:12:19;17.40;99.90
20829;DHT22;10575;50.124;8.582;2023-08-06T07:14:47;17.30;99.90
20829;DHT22;10575;50.124;8.582;2023-08-06T07:17:12;17.30;99.90
20829;DHT22;10575;50.124;8.582;2023-08-06T07:19:38;17.20;99.90
20829;DHT22;10575;50.124;8.582;2023-08-06T07:22:03;17.20;99.90
20829;DHT22;10575;50.124;8.582;2023-08-06T07:24:29;17.30;99.90
20829;DHT22;10575;50.124;8.582;2023-08-06T07:26:54;17.30;99.90
20829;DHT22;10575;50.124;8.582;2023-08-06T07:29:20;17.20;99.90
20829;DHT22;10575;50.124;8.582;2023-08-06T07:31:47;17.10;99.90
20829;DHT22;10575;50.124;8.582;2023-08-06T07:34:13;17.10;99.90
20829;DHT22;10575;50.124;8.582;2023-08-06T07:36:38;17.20;99.90
20829;DHT22;10575;50.124;8.582;2023-08-06T07:39:04;17.30;99.90
20829;DHT22;10575;50.124;8.582;2023-08-06T07:41:31;17.30;99.90
20829;DHT22;10575;50.124;8.582;2023-08-06T07:43:57;17.30;99.90
20829;DHT22;10575;50.124;8.582;2023-08-06T07:46:22;17.30;99.90
20829;DHT22;10575;50.124;8.582;2023-08-06T07:48:48;17.20;99.90
20829;DHT22;10575;50.124;8.582;2023-08-06T07:51:13;17.20;99.90
20829;DHT22;10575;50.124;8.582;2023-08-06T07:53:39;17.30;99.90
20829;DHT22;10575;50.124;8.582;2023-08-06T07:56:04;17.30;99.90
20829;DHT22;10575;50.124;8.582;2023-08-06T07:58:30;17.40;99.90
20829;DHT22;10575;50.124;8.582;2023-08-06T08:00:57;17.50;99.90
20829;DHT22;10575;50.124;8.582;2023-08-06T08:03:22;17.50;99.90
20829;DHT22;10575;50.124;8.582;2023-08-06T08:05:48;17.60;99.90
20829;DHT22;10575;50.124;8.582;2023-08-06T08:08:13;17.70;99.90
20829;DHT22;10575;50.124;8.582;2023-08-06T08:10:39;17.80;99.90
20829;DHT22;10575;50.124;8.582;2023-08-06T08:13:05;17.90;99.90
20829;DHT22;10575;50.124;8.582;2023-08-06T08:15:31;18.00;99.90
20829;DHT22;10575;50.124;8.582;2023-08-06T08:17:58;18.10;99.90
20829;DHT22;10575;50.124;8.582;2023-08-06T08:20:24;18.20;99.90
20829;DHT22;10575;50.124;8.582;2023-08-06T08:22:49;18.30;99.90
20829;DHT22;10575;50.124;8.582;2023-08-06T08:25:16;18.50;99.90
20829;DHT22;10575;50.124;8.582;2023-08-06T08:27:41;19.00;99.90
20829;DHT22;10575;50.124;8.582;2023-08-06T08:30:07;19.30;99.90
20829;DHT22;10575;50.124;8.582;2023-08-06T08:32:33;19.40;99.90
20829;DHT22;10575;50.124;8.582;2023-08-06T08:34:58;19.40;99.90
20829;DHT22;10575;50.124;8.582;2023-08-06T08:37:24;19.40;99.90
20829;DHT22;10575;50.124;8.582;2023-08-06T08:39:50;19.30;99.90
20829;DHT22;10575;50.124;8.582;2023-08-06T08:42:16;19.00;99.90
20829;DHT22;10575;50.124;8.582;2023-08-06T08:44:42;18.90;99.90
20829;DHT22;10575;50.124;8.582;2023-08-06T08:47:10;18.80;99.90
20829;DHT22;10575;50.124;8.582;2023-08-06T08:49:36;19.00;99.90
20829;DHT22;10575;50.124;8.582;2023-08-06T08:52:04;19.10;99.90
20829;DHT22;10575;50.124;8.582;2023-08-06T08:54:34;19.30;99.90
20829;DHT22;10575;50.124;8.582;2023-08-06T08:57:00;19.40;99.90
20829;DHT22;10575;50.124;8.582;2023-08-06T08:59:26;19.40;99.90
20829;DHT22;10575;50.124;8.582;2023-08-06T09:01:52;19.40;99.90
20829;DHT22;10575;50.124;8.582;2023-08-06T09:04:18;19.20;99.90
20829;DHT22;10575;50.124;8.582;2023-08-06T09:06:46;19.00;99.90
20829;DHT22;10575;50.124;8.582;2023-08-06T09:09:15;19.00;99.90
20829;DHT22;10575;50.124;8.582;2023-08-06T09:11:45;19.20;99.90
20829;DHT22;10575;50.124;8.582;2023-08-06T09:14:11;20.30;99.90
20829;DHT22;10575;50.124;8.582;2023-08-06T09:16:37;20.80;99.90
20829;DHT22;10575;50.124;8.582;2023-08-06T09:19:10;21.40;99.90
20829;DHT22;10575;50.124;8.582;2023-08-06T09:21:41;22.00;99.90
20829;DHT22;10575;50.124;8.582;2023-08-06T09:24:11;22.30;99.90
20829;DHT22;10575;50.124;8.582;2023-08-06T09:26:41;22.30;99.90
20829;DHT22;10575;50.124;8.582;2023-08-06T09:29:08;22.40;99.90
20829;DHT22;10575;50.124;8.582;2023-08-06T09:31:43;22.50;99.90
20829;DHT22;10575;50.124;8.582;2023-08-06T09:34:15;23.80;99.90
20829;DHT22;10575;50.124;8.582;2023-08-06T09:36:52;25.90;99.90
20829;DHT22;10575;50.124;8.582;2023-08-06T09:39:20;26.70;99.90
20829;DHT22;10575;50.124;8.582;2023-08-06T09:41:46;26.40;99.90
20829;DHT22;10575;50.124;8.582;2023-08-06T09:44:19;26.20;99.90
20829;DHT22;10575;50.124;8.582;2023-08-06T09:46:51;25.70;99.90
20829;DHT22;10575;50.124;8.582;2023-08-06T09:49:18;25.30;99.90
20829;DHT22;10575;50.124;8.582;2023-08-06T09:51:45;25.10;99.90
20829;DHT22;10575;50.124;8.582;2023-08-06T09:54:12;24.90;99.90
20829;DHT22;10575;50.124;8.582;2023-08-06T09:56:39;24.80;99.90
20829;DHT22;10575;50.124;8.582;2023-08-06T09:59:05;24.80;99.90
20829;DHT22;10575;50.124;8.582;2023-08-06T10:01:33;24.50;99.90
20829;DHT22;10575;50.124;8.582;2023-08-06T10:04:00;23.80;99.90
20829;DHT22;10575;50.124;8.582;2023-08-06T10:06:26;23.70;99.90
20829;DHT22;10575;50.124;8.582;2023-08-06T10:08:53;23.50;99.90
20829;DHT22;10575;50.124;8.582;2023-08-06T10:11:22;23.50;99.90
20829;DHT22;10575;50.124;8.582;2023-08-06T10:13:50;23.50;99.90
20829;DHT22;10575;50.124;8.582;2023-08-06T10:16:18;23.60;99.90
20829;DHT22;10575;50.124;8.582;2023-08-06T10:18:43;23.60;99.90
20829;DHT22;10575;50.124;8.582;2023-08-06T10:21:09;23.50;99.90
20829;DHT22;10575;50.124;8.582;2023-08-06T10:23:36;23.60;99.90
20829;DHT22;10575;50.124;8.582;2023-08-06T10:26:03;23.70;99.90
20829;DHT22;10575;50.124;8.582;2023-08-06T10:28:39;23.80;99.90
20829;DHT22;10575;50.124;8.582;2023-08-06T10:31:05;23.40;99.90
20829;DHT22;10575;50.124;8.582;2023-08-06T10:33:44;22.70;99.90
20829;DHT22;10575;50.124;8.582;2023-08-06T10:36:10;22.40;99.90
20829;DHT22;10575;50.124;8.582;2023-08-06T10:38:44;22.20;99.90
20829;DHT22;10575;50.124;8.582;2023-08-06T10:41:28;22.20;99.90
20829;DHT22;10575;50.124;8.582;2023-08-06T10:44:05;22.40;99.90
20829;DHT22;10575;50.124;8.582;2023-08-06T10:46:32;22.80;99.90
20829;DHT22;10575;50.124;8.582;2023-08-06T10:48:58;23.40;99.90
20829;DHT22;10575;50.124;8.582;2023-08-06T10:51:24;23.20;99.90
20829;DHT22;10575;50.124;8.582;2023-08-06T10:53:50;23.30;99.90
20829;DHT22;10575;50.124;8.582;2023-08-06T10:56:21;23.40;99.90
20829;DHT22;10575;50.124;8.582;2023-08-06T10:58:53;23.00;99.90
20829;DHT22;10575;50.124;8.582;2023-08-06T11:01:19;22.60;99.90
20829;DHT22;10575;50.124;8.582;2023-08-06T11:03:47;22.40;99.90
20829;DHT22;10575;50.124;8.582;2023-08-06T11:06:18;22.30;99.90
20829;DHT22;10575;50.124;8.582;2023-08-06T11:08:53;22.20;99.90
20829;DHT22;10575;50.124;8.582;2023-08-06T11:11:19;22.30;99.90
20829;DHT22;10575;50.124;8.582;2023-08-06T11:13:46;22.60;99.90
20829;DHT22;10575;50.124;8.582;2023-08-06T11:16:20;23.00;99.90
20829;DHT22;10575;50.124;8.582;2023-08-06T11:18:46;23.20;99.90
20829;DHT22;10575;50.124;8.582;2023-08-06T11:21:12;23.20;99.90
20829;DHT22;10575;50.124;8.582;2023-08-06T11:23:38;23.20;99.90
20829;DHT22;10575;50.124;8.582;2023-08-06T11:26:04;23.00;99.90
20829;DHT22;10575;50.124;8.582;2023-08-06T11:28:30;22.90;99.90
20829;DHT22;10575;50.124;8.582;2023-08-06T11:30:55;22.60;99.90
20829;DHT22;10575;50.124;8.582;2023-08-06T11:33:26;22.40;99.90
20829;DHT22;10575;50.124;8.582;2023-08-06T11:35:52;22.30;99.90
20829;DHT22;10575;50.124;8.582;2023-08-06T11:38:18;22.30;99.90
20829;DHT22;10575;50.124;8.582;2023-08-06T11:40:50;22.30;99.90
20829;DHT22;10575;50.124;8.582;2023-08-06T11:43:20;22.30;99.90
20829;DHT22;10575;50.124;8.582;2023-08-06T11:45:48;22.00;99.90
20829;DHT22;10575;50.124;8.582;2023-08-06T11:48:14;21.50;99.90
20829;DHT22;10575;50.124;8.582;2023-08-06T11:50:39;20.60;99.90
20829;DHT22;10575;50.124;8.582;2023-08-06T11:53:05;19.70;99.90
20829;DHT22;10575;50.124;8.582;2023-08-06T11:55:33;18.90;99.90
20829;DHT22;10575;50.124;8.582;2023-08-06T11:58:03;18.70;99.90
20829;DHT22;10575;50.124;8.582;2023-08-06T12:00:30;18.40;99.90
20829;DHT22;10575;50.124;8.582;2023-08-06T12:02:56;18.30;99.90
20829;DHT22;10575;50.124;8.582;2023-08-06T12:05:23;18.40;99.90
20829;DHT22;10575;50.124;8.582;2023-08-06T12:07:57;18.40;99.90
20829;DHT22;10575;50.124;8.582;2023-08-06T12:10:24;18.20;99.90
20829;DHT22;10575;50.124;8.582;2023-08-06T12:12:50;18.30;99.90
20829;DHT22;10575;50.124;8.582;2023-08-06T12:15:16;18.40;99.90
20829;DHT22;10575;50.124;8.582;2023-08-06T12:17:42;18.50;99.90
20829;DHT22;10575;50.124;8.582;2023-08-06T12:20:08;18.60;99.90
20829;DHT22;10575;50.124;8.582;2023-08-06T12:22:35;18.70;99.90
20829;DHT22;10575;50.124;8.582;2023-08-06T12:25:02;18.90;99.90
20829;DHT22;10575;50.124;8.582;2023-08-06T12:27:29;19.30;99.90
20829;DHT22;10575;50.124;8.582;2023-08-06T12:29:54;19.50;99.90
20829;DHT22;10575;50.124;8.582;2023-08-06T12:32:20;19.80;99.90
20829;DHT22;10575;50.124;8.582;2023-08-06T12:34:45;19.80;99.90
20829;DHT22;10575;50.124;8.582;2023-08-06T12:37:11;20.10;99.90
20829;DHT22;10575;50.124;8.582;2023-08-06T12:39:37;20.60;99.90
20829;DHT22;10575;50.124;8.582;2023-08-06T12:42:04;20.50;99.90
20829;DHT22;10575;50.124;8.582;2023-08-06T12:44:30;20.30;99.90
20829;DHT22;10575;50.124;8.582;2023-08-06T12:46:56;20.30;99.90
20829;DHT22;10575;50.124;8.582;2023-08-06T12:49:22;20.10;99.90
20829;DHT22;10575;50.124;8.582;2023-08-06T12:51:48;19.60;99.90
20829;DHT22;10575;50.124;8.582;2023-08-06T12:54:15;19.40;99.90
20829;DHT22;10575;50.124;8.582;2023-08-06T12:56:41;19.40;99.90
20829;DHT22;10575;50.124;8.582;2023-08-06T12:59:06;19.50;99.90
20829;DHT22;10575;50.124;8.582;2023-08-06T13:01:32;19.30;99.90
20829;DHT22;10575;50.124;8.582;2023-08-06T13:03:59;19.30;99.90
20829;DHT22;10575;50.124;8.582;2023-08-06T13:06:25;19.20;99.90
20829;DHT22;10575;50.124;8.582;2023-08-06T13:08:50;19.10;99.90
20829;DHT22;10575;50.124;8.582;2023-08-06T13:11:16;19.30;99.90
20829;DHT22;10575;50.124;8.582;2023-08-06T13:13:42;19.50;99.90
20829;DHT22;10575;50.124;8.582;2023-08-06T13:16:07;19.50;99.90
20829;DHT22;10575;50.124;8.582;2023-08-06T13:18:33;19.70;99.90
20829;DHT22;10575;50.124;8.582;2023-08-06T13:20:58;19.90;99.90
20829;DHT22;10575;50.124;8.582;2023-08-06T13:23:24;19.90;99.90
20829;DHT22;10575;50.124;8.582;2023-08-06T13:25:49;19.60;99.90
20829;DHT22;10575;50.124;8.582;2023-08-06T13:28:15;19.30;99.90
20829;DHT22;10575;50.124;8.582;2023-08-06T13:30:40;19.20;99.90
20829;DHT22;10575;50.124;8.582;2023-08-06T13:33:10;18.70;99.90
20829;DHT22;10575;50.124;8.582;2023-08-06T13:35:35;18.70;99.90
20829;DHT22;10575;50.124;8.582;2023-08-06T13:38:01;18.50;99.90
20829;DHT22;10575;50.124;8.582;2023-08-06T13:40:32;18.50;99.90
20829;DHT22;10575;50.124;8.582;2023-08-06T13:42:57;18.50;99.90
20829;DHT22;10575;50.124;8.582;2023-08-06T13:45:23;18.40;99.90
20829;DHT22;10575;50.124;8.582;2023-08-06T13:47:49;18.40;99.90
20829;DHT22;10575;50.124;8.582;2023-08-06T13:50:14;18.60;99.90
20829;DHT22;10575;50.124;8.582;2023-08-06T13:52:40;18.70;99.90
20829;DHT22;10575;50.124;8.582;2023-08-06T13:55:06;18.80;99.90
20829;DHT22;10575;50.124;8.582;2023-08-06T13:57:33;18.90;99.90
20829;DHT22;10575;50.124;8.582;2023-08-06T13:59:59;19.00;99.90
20829;DHT22;10575;50.124;8.582;2023-08-06T14:02:24;19.00;99.90
20829;DHT22;10575;50.124;8.582;2023-08-06T14:04:51;18.90;99.90
20829;DHT22;10575;50.124;8.582;2023-08-06T14:07:17;18.80;99.90
20829;DHT22;10575;50.124;8.582;2023-08-06T14:09:42;18.70;99.90
20829;DHT22;10575;50.124;8.582;2023-08-06T14:12:09;18.60;99.90
20829;DHT22;10575;50.124;8.582;2023-08-06T14:14:35;18.50;99.90
20829;DHT22;10575;50.124;8.582;2023-08-06T14:17:00;18.50;99.90
20829;DHT22;10575;50.124;8.582;2023-08-06T14:19:26;18.40;99.90
20829;DHT22;10575;50.124;8.582;2023-08-06T14:21:52;18.60;99.90
20829;DHT22;10575;50.124;8.582;2023-08-06T14:24:18;18.60;99.90
20829;DHT22;10575;50.124;8.582;2023-08-06T14:26:43;18.80;99.90
20829;DHT22;10575;50.124;8.582;2023-08-06T14:29:09;19.10;99.90
20829;DHT22;10575;50.124;8.582;2023-08-06T14:31:35;19.20;99.90
20829;DHT22;10575;50.124;8.582;2023-08-06T14:34:00;19.20;99.90
20829;DHT22;10575;50.124;8.582;2023-08-06T14:36:26;19.20;99.90
20829;DHT22;10575;50.124;8.582;2023-08-06T14:38:52;19.30;99.90
20829;DHT22;10575;50.124;8.582;2023-08-06T14:41:17;19.30;99.90
20829;DHT22;10575;50.124;8.582;2023-08-06T14:43:43;19.10;99.90
20829;DHT22;10575;50.124;8.582;2023-08-06T14:46:08;19.00;99.90
20829;DHT22;10575;50.124;8.582;2023-08-06T14:48:34;19.10;99.90
20829;DHT22;10575;50.124;8.582;2023-08-06T14:50:59;19.30;99.90
20829;DHT22;10575;50.124;8.582;2023-08-06T14:53:25;19.40;99.90
20829;DHT22;10575;50.124;8.582;2023-08-06T14:55:50;19.50;99.90
20829;DHT22;10575;50.124;8.582;2023-08-06T14:58:16;19.50;99.90
20829;DHT22;10575;50.124;8.582;2023-08-06T15:00:41;19.30;99.90
20829;DHT22;10575;50.124;8.582;2023-08-06T15:03:07;19.30;99.90
20829;DHT22;10575;50.124;8.582;2023-08-06T15:05:33;19.10;99.90
20829;DHT22;10575;50.124;8.582;2023-08-06T15:07:59;18.90;99.90
20829;DHT22;10575;50.124;8.582;2023-08-06T15:10:24;18.70;99.90
20829;DHT22;10575;50.124;8.582;2023-08-06T15:12:50;18.50;99.90
20829;DHT22;10575;50.124;8.582;2023-08-06T15:15:16;18.60;99.90
20829;DHT22;10575;50.124;8.582;2023-08-06T15:17:42;18.50;99.90
20829;DHT22;10575;50.124;8.582;2023-08-06T15:20:08;18.30;99.90
20829;DHT22;10575;50.124;8.582;2023-08-06T15:22:34;18.10;99.90
20829;DHT22;10575;50.124;8.582;2023-08-06T15:25:00;18.30;99.90
20829;DHT22;10575;50.124;8.582;2023-08-06T15:27:26;18.30;99.90
20829;DHT22;10575;50.124;8.582;2023-08-06T15:29:52;18.50;99.90
20829;DHT22;10575;50.124;8.582;2023-08-06T15:32:17;18.60;99.90
20829;DHT22;10575;50.124;8.582;2023-08-06T15:34:43;18.50;99.90
20829;DHT22;10575;50.124;8.582;2023-08-06T15:37:08;18.60;99.90
20829;DHT22;10575;50.124;8.582;2023-08-06T15:39:34;18.70;99.90
20829;DHT22;10575;50.124;8.582;2023-08-06T15:41:59;18.70;99.90
20829;DHT22;10575;50.124;8.582;2023-08-06T15:44:25;18.70;99.90
20829;DHT22;10575;50.124;8.582;2023-08-06T15:46:52;18.60;99.90
20829;DHT22;10575;50.124;8.582;2023-08-06T15:49:17;18.30;99.90
20829;DHT22;10575;50.124;8.582;2023-08-06T15:51:43;18.00;99.90
20829;DHT22;10575;50.124;8.582;2023-08-06T15:54:09;17.80;99.90